sensor_id;sensor_type;location;lat;lon;timestamp;P1;durP1;ratioP1;P2;durP2;ratioP2
63664;SDS011;49820;33.966;73.390;2023-07-29T02:36:24;5.15;;;3.30;;
63664;SDS011;49820;33.966;73.390;2023-07-29T02:38:54;4.80;;;2.90;;
63664;SDS011;49820;33.966;73.390;2023-07-29T02:41:23;6.80;;;2.83;;
63664;SDS011;49820;33.966;73.390;2023-07-29T02:43:52;5.57;;;3.00;;
63664;SDS011;49820;33.966;73.390;2023-07-29T02:46:21;6.93;;;2.97;;
63664;SDS011;49820;33.966;73.390;2023-07-29T02:48:51;5.20;;;2.97;;
63664;SDS011;49820;33.966;73.390;2023-07-29T02:51:20;6.55;;;3.70;;
63664;SDS011;49820;33.966;73.390;2023-07-29T02:53:49;5.53;;;3.10;;
63664;SDS011;49820;33.966;73.390;2023-07-29T02:56:18;4.10;;;2.92;;
63664;SDS011;49820;33.966;73.390;2023-07-29T02:58:47;4.78;;;3.03;;
63664;SDS011;49820;33.966;73.390;2023-07-29T03:21:26;2.63;;;1.80;;
63664;SDS011;49820;33.966;73.390;2023-07-29T03:23:54;2.63;;;1.70;;
63664;SDS011;49820;33.966;73.390;2023-07-29T03:26:23;3.05;;;1.38;;
63664;SDS011;49820;33.966;73.390;2023-07-29T03:28:53;2.97;;;1.65;;
63664;SDS011;49820;33.966;73.390;2023-07-29T03:31:23;2.87;;;1.43;;
63664;SDS011;49820;33.966;73.390;2023-07-29T03:33:52;2.40;;;1.40;;
63664;SDS011;49820;33.966;73.390;2023-07-29T03:36:21;2.77;;;1.60;;
63664;SDS011;49820;33.966;73.390;2023-07-29T03:38:50;2.45;;;1.40;;
63664;SDS011;49820;33.966;73.390;2023-07-29T03:41:20;2.08;;;1.20;;
63664;SDS011;49820;33.966;73.390;2023-07-29T03:43:50;2.60;;;1.30;;
63664;SDS011;49820;33.966;73.390;2023-07-29T03:46:19;2.40;;;1.30;;
63664;SDS011;49820;33.966;73.390;2023-07-29T03:48:50;2.78;;;1.35;;
63664;SDS011;49820;33.966;73.390;2023-07-29T03:51:19;2.30;;;1.50;;
63664;SDS011;49820;33.966;73.390;2023-07-29T03:53:50;2.03;;;1.23;;
63664;SDS011;49820;33.966;73.390;2023-07-29T03:56:19;1.75;;;1.17;;
63664;SDS011;49820;33.966;73.390;2023-07-29T03:58:48;2.33;;;1.80;;
63664;SDS011;49820;33.966;73.390;2023-07-29T04:01:17;3.08;;;1.35;;
63664;SDS011;49820;33.966;73.390;2023-07-29T04:03:46;2.85;;;1.60;;
63664;SDS011;49820;33.966;73.390;2023-07-29T04:06:16;2.17;;;1.23;;
63664;SDS011;49820;33.966;73.390;2023-07-29T04:08:45;1.92;;;1.30;;
63664;SDS011;49820;33.966;73.390;2023-07-29T04:11:15;3.10;;;1.40;;
63664;SDS011;49820;33.966;73.390;2023-07-29T04:13:46;2.55;;;1.50;;
63664;SDS011;49820;33.966;73.390;2023-07-29T04:16:15;3.83;;;1.80;;
63664;SDS011;49820;33.966;73.390;2023-07-29T04:18:45;3.05;;;1.58;;
63664;SDS011;49820;33.966;73.390;2023-07-29T04:21:14;3.80;;;1.85;;
63664;SDS011;49820;33.966;73.390;2023-07-29T04:23:43;3.30;;;1.50;;
63664;SDS011;49820;33.966;73.390;2023-07-29T04:26:14;3.72;;;1.60;;
63664;SDS011;49820;33.966;73.390;2023-07-29T04:28:43;2.97;;;1.70;;
63664;SDS011;49820;33.966;73.390;2023-07-29T04:31:12;3.10;;;1.65;;
63664;SDS011;49820;33.966;73.390;2023-07-29T04:33:41;3.65;;;1.60;;
63664;SDS011;49820;33.966;73.390;2023-07-29T04:36:10;3.15;;;1.33;;
63664;SDS011;49820;33.966;73.390;2023-07-29T04:38:43;3.15;;;1.30;;
63664;SDS011;49820;33.966;73.390;2023-07-29T04:41:12;2.47;;;1.27;;
63664;SDS011;49820;33.966;73.390;2023-07-29T04:43:42;2.83;;;1.42;;
63664;SDS011;49820;33.966;73.390;2023-07-29T04:46:14;1.95;;;1.50;;
63664;SDS011;49820;33.966;73.390;2023-07-29T04:48:43;2.10;;;1.30;;
63664;SDS011;49820;33.966;73.390;2023-07-29T04:51:12;3.20;;;1.60;;
63664;SDS011;49820;33.966;73.390;2023-07-29T04:53:41;4.20;;;1.50;;
63664;SDS011;49820;33.966;73.390;2023-07-29T04:56:10;2.45;;;1.48;;
63664;SDS011;49820;33.966;73.390;2023-07-29T04:58:44;1.70;;;1.27;;
63664;SDS011;49820;33.966;73.390;2023-07-29T05:01:14;2.47;;;1.30;;
63664;SDS011;49820;33.966;73.390;2023-07-29T05:03:44;3.53;;;1.50;;
63664;SDS011;49820;33.966;73.390;2023-07-29T05:06:14;2.77;;;1.57;;
63664;SDS011;49820;33.966;73.390;2023-07-29T05:08:46;2.85;;;1.60;;
63664;SDS011;49820;33.966;73.390;2023-07-29T05:11:15;2.80;;;1.38;;
63664;SDS011;49820;33.966;73.390;2023-07-29T05:13:47;2.30;;;1.63;;
63664;SDS011;49820;33.966;73.390;2023-07-29T05:16:16;2.23;;;1.33;;
63664;SDS011;49820;33.966;73.390;2023-07-29T05:18:46;1.98;;;1.27;;
63664;SDS011;49820;33.966;73.390;2023-07-29T05:21:15;2.87;;;1.40;;
63664;SDS011;49820;33.966;73.390;2023-07-29T05:23:47;3.10;;;1.43;;
63664;SDS011;49820;33.966;73.390;2023-07-29T05:26:16;4.00;;;1.75;;
63664;SDS011;49820;33.966;73.390;2023-07-29T05:28:46;3.75;;;1.40;;
63664;SDS011;49820;33.966;73.390;2023-07-29T05:31:15;2.70;;;1.30;;
63664;SDS011;49820;33.966;73.390;2023-07-29T05:33:44;2.43;;;1.30;;
63664;SDS011;49820;33.966;73.390;2023-07-29T05:36:13;3.30;;;1.40;;
63664;SDS011;49820;33.966;73.390;2023-07-29T05:38:43;2.70;;;1.30;;
63664;SDS011;49820;33.966;73.390;2023-07-29T05:41:12;3.28;;;1.63;;
63664;SDS011;49820;33.966;73.390;2023-07-29T05:43:41;2.35;;;1.50;;
63664;SDS011;49820;33.966;73.390;2023-07-29T05:46:11;2.78;;;1.55;;
63664;SDS011;49820;33.966;73.390;2023-07-29T05:48:40;3.85;;;1.52;;
63664;SDS011;49820;33.966;73.390;2023-07-29T05:51:09;4.60;;;1.42;;
63664;SDS011;49820;33.966;73.390;2023-07-29T05:53:40;4.15;;;1.40;;
63664;SDS011;49820;33.966;73.390;2023-07-29T05:56:09;3.45;;;1.30;;
63664;SDS011;49820;33.966;73.390;2023-07-29T05:58:38;2.50;;;1.50;;
63664;SDS011;49820;33.966;73.390;2023-07-29T06:01:07;2.20;;;1.35;;
63664;SDS011;49820;33.966;73.390;2023-07-29T06:03:36;3.42;;;1.45;;
63664;SDS011;49820;33.966;73.390;2023-07-29T06:06:05;3.00;;;1.40;;
63664;SDS011;49820;33.966;73.390;2023-07-29T06:08:35;2.70;;;1.67;;
63664;SDS011;49820;33.966;73.390;2023-07-29T06:11:04;3.25;;;1.45;;
63664;SDS011;49820;33.966;73.390;2023-07-29T06:13:34;2.77;;;1.50;;
63664;SDS011;49820;33.966;73.390;2023-07-29T06:16:03;3.38;;;1.48;;
63664;SDS011;49820;33.966;73.390;2023-07-29T06:18:33;2.70;;;1.55;;
63664;SDS011;49820;33.966;73.390;2023-07-29T06:21:03;3.75;;;1.60;;
63664;SDS011;49820;33.966;73.390;2023-07-29T06:23:36;3.13;;;1.63;;
63664;SDS011;49820;33.966;73.390;2023-07-29T06:26:06;2.35;;;1.60;;
63664;SDS011;49820;33.966;73.390;2023-07-29T06:28:36;3.13;;;1.50;;
63664;SDS011;49820;33.966;73.390;2023-07-29T06:31:07;2.60;;;1.30;;
63664;SDS011;49820;33.966;73.390;2023-07-29T06:33:36;2.90;;;1.52;;
63664;SDS011;49820;33.966;73.390;2023-07-29T06:36:05;3.10;;;1.77;;
63664;SDS011;49820;33.966;73.390;2023-07-29T06:38:34;3.50;;;1.88;;
63664;SDS011;49820;33.966;73.390;2023-07-29T06:41:04;3.47;;;1.60;;
63664;SDS011;49820;33.966;73.390;2023-07-29T06:43:33;2.70;;;1.33;;
63664;SDS011;49820;33.966;73.390;2023-07-29T06:46:05;3.20;;;1.70;;
63664;SDS011;49820;33.966;73.390;2023-07-29T06:48:34;2.63;;;1.48;;
63664;SDS011;49820;33.966;73.390;2023-07-29T06:51:03;2.60;;;1.73;;
63664;SDS011;49820;33.966;73.390;2023-07-29T06:53:32;3.20;;;2.08;;
63664;SDS011;49820;33.966;73.390;2023-07-29T06:56:01;2.65;;;1.75;;
63664;SDS011;49820;33.966;73.390;2023-07-29T06:58:31;2.42;;;1.55;;
63664;SDS011;49820;33.966;73.390;2023-07-29T07:01:00;3.13;;;1.63;;
63664;SDS011;49820;33.966;73.390;2023-07-29T07:03:33;3.40;;;1.77;;
63664;SDS011;49820;33.966;73.390;2023-07-29T07:06:02;3.10;;;1.60;;
63664;SDS011;49820;33.966;73.390;2023-07-29T07:08:32;4.40;;;1.80;;
63664;SDS011;49820;33.966;73.390;2023-07-29T07:11:01;2.67;;;1.65;;
63664;SDS011;49820;33.966;73.390;2023-07-29T07:13:30;3.30;;;1.40;;
63664;SDS011;49820;33.966;73.390;2023-07-29T07:15:59;3.53;;;1.63;;
63664;SDS011;49820;33.966;73.390;2023-07-29T07:18:28;2.60;;;1.50;;
63664;SDS011;49820;33.966;73.390;2023-07-29T07:20:58;1.95;;;1.27;;
63664;SDS011;49820;33.966;73.390;2023-07-29T07:23:27;2.00;;;1.40;;
63664;SDS011;49820;33.966;73.390;2023-07-29T07:26:03;2.65;;;1.50;;
63664;SDS011;49820;33.966;73.390;2023-07-29T07:28:34;2.67;;;1.63;;
63664;SDS011;49820;33.966;73.390;2023-07-29T07:31:04;3.88;;;1.80;;
63664;SDS011;49820;33.966;73.390;2023-07-29T07:33:36;2.45;;;1.70;;
63664;SDS011;49820;33.966;73.390;2023-07-29T07:36:09;3.58;;;1.58;;
63664;SDS011;49820;33.966;73.390;2023-07-29T07:38:38;2.70;;;1.70;;
63664;SDS011;49820;33.966;73.390;2023-07-29T07:41:07;2.20;;;1.90;;
63664;SDS011;49820;33.966;73.390;2023-07-29T07:43:37;4.03;;;1.92;;
63664;SDS011;49820;33.966;73.390;2023-07-29T07:46:06;3.00;;;1.75;;
63664;SDS011;49820;33.966;73.390;2023-07-29T07:48:37;3.50;;;1.75;;
63664;SDS011;49820;33.966;73.390;2023-07-29T07:51:10;2.00;;;1.60;;
63664;SDS011;49820;33.966;73.390;2023-07-29T07:53:42;2.47;;;1.60;;
63664;SDS011;49820;33.966;73.390;2023-07-29T07:56:12;4.25;;;1.83;;
63664;SDS011;49820;33.966;73.390;2023-07-29T07:58:42;3.78;;;1.90;;
63664;SDS011;49820;33.966;73.390;2023-07-29T08:01:10;2.80;;;1.90;;
63664;SDS011;49820;33.966;73.390;2023-07-29T08:03:40;3.15;;;1.83;;
63664;SDS011;49820;33.966;73.390;2023-07-29T08:06:09;3.22;;;1.65;;
63664;SDS011;49820;33.966;73.390;2023-07-29T08:08:39;3.75;;;2.00;;
63664;SDS011;49820;33.966;73.390;2023-07-29T08:11:08;4.18;;;2.50;;
63664;SDS011;49820;33.966;73.390;2023-07-29T08:13:47;5.28;;;3.00;;
63664;SDS011;49820;33.966;73.390;2023-07-29T08:16:17;3.83;;;3.10;;
63664;SDS011;49820;33.966;73.390;2023-07-29T08:18:46;4.80;;;2.78;;
63664;SDS011;49820;33.966;73.390;2023-07-29T08:21:16;5.03;;;2.85;;
63664;SDS011;49820;33.966;73.390;2023-07-29T08:23:45;3.25;;;2.47;;
63664;SDS011;49820;33.966;73.390;2023-07-29T08:26:15;2.90;;;2.30;;
63664;SDS011;49820;33.966;73.390;2023-07-29T08:28:45;5.60;;;2.85;;
63664;SDS011;49820;33.966;73.390;2023-07-29T08:31:15;4.35;;;2.85;;
63664;SDS011;49820;33.966;73.390;2023-07-29T08:33:44;4.00;;;3.00;;
63664;SDS011;49820;33.966;73.390;2023-07-29T08:36:13;3.95;;;2.53;;
63664;SDS011;49820;33.966;73.390;2023-07-29T08:38:42;3.15;;;2.45;;
63664;SDS011;49820;33.966;73.390;2023-07-29T08:43:59;4.50;;;2.53;;
63664;SDS011;49820;33.966;73.390;2023-07-29T08:46:39;5.63;;;3.40;;
63664;SDS011;49820;33.966;73.390;2023-07-29T08:49:08;3.05;;;2.70;;
63664;SDS011;49820;33.966;73.390;2023-07-29T08:51:44;3.53;;;2.47;;
63664;SDS011;49820;33.966;73.390;2023-07-29T08:54:19;4.97;;;2.58;;
63664;SDS011;49820;33.966;73.390;2023-07-29T08:56:48;4.25;;;2.58;;
63664;SDS011;49820;33.966;73.390;2023-07-29T08:59:19;3.30;;;2.33;;
63664;SDS011;49820;33.966;73.390;2023-07-29T09:01:48;3.10;;;2.42;;
63664;SDS011;49820;33.966;73.390;2023-07-29T09:04:18;5.43;;;2.53;;
63664;SDS011;49820;33.966;73.390;2023-07-29T09:06:51;3.40;;;2.20;;
63664;SDS011;49820;33.966;73.390;2023-07-29T09:09:25;3.60;;;1.90;;
63664;SDS011;49820;33.966;73.390;2023-07-29T09:11:54;2.80;;;1.93;;
63664;SDS011;49820;33.966;73.390;2023-07-29T09:14:23;3.40;;;1.90;;
63664;SDS011;49820;33.966;73.390;2023-07-29T09:16:53;3.30;;;2.03;;
63664;SDS011;49820;33.966;73.390;2023-07-29T09:19:25;5.68;;;2.55;;
63664;SDS011;49820;33.966;73.390;2023-07-29T09:21:55;3.40;;;2.40;;
63664;SDS011;49820;33.966;73.390;2023-07-29T09:24:25;3.67;;;2.50;;
63664;SDS011;49820;33.966;73.390;2023-07-29T09:26:57;3.17;;;2.42;;
63664;SDS011;49820;33.966;73.390;2023-07-29T09:29:27;2.87;;;1.90;;
63664;SDS011;49820;33.966;73.390;2023-07-29T09:32:17;3.15;;;2.03;;
63664;SDS011;49820;33.966;73.390;2023-07-29T09:34:47;3.47;;;2.20;;
63664;SDS011;49820;33.966;73.390;2023-07-29T09:37:23;3.95;;;2.08;;
63664;SDS011;49820;33.966;73.390;2023-07-29T09:39:52;2.92;;;2.20;;
63664;SDS011;49820;33.966;73.390;2023-07-29T09:42:22;4.10;;;2.25;;
63664;SDS011;49820;33.966;73.390;2023-07-29T09:44:57;3.10;;;1.90;;
63664;SDS011;49820;33.966;73.390;2023-07-29T09:47:26;3.92;;;2.25;;
63664;SDS011;49820;33.966;73.390;2023-07-29T09:49:55;3.38;;;2.08;;
63664;SDS011;49820;33.966;73.390;2023-07-29T09:52:25;4.15;;;2.00;;
63664;SDS011;49820;33.966;73.390;2023-07-29T09:54:54;3.58;;;2.05;;
63664;SDS011;49820;33.966;73.390;2023-07-29T09:57:24;2.92;;;2.00;;
63664;SDS011;49820;33.966;73.390;2023-07-29T09:59:55;3.95;;;2.08;;
63664;SDS011;49820;33.966;73.390;2023-07-29T10:02:26;5.05;;;1.83;;
63664;SDS011;49820;33.966;73.390;2023-07-29T10:04:58;3.72;;;2.20;;
63664;SDS011;49820;33.966;73.390;2023-07-29T10:07:29;3.75;;;1.95;;
63664;SDS011;49820;33.966;73.390;2023-07-29T10:09:59;3.92;;;2.03;;
63664;SDS011;49820;33.966;73.390;2023-07-29T10:12:32;3.60;;;2.20;;
63664;SDS011;49820;33.966;73.390;2023-07-29T10:15:04;4.97;;;2.40;;
63664;SDS011;49820;33.966;73.390;2023-07-29T10:17:35;3.33;;;2.30;;
63664;SDS011;49820;33.966;73.390;2023-07-29T10:20:10;3.47;;;2.10;;
63664;SDS011;49820;33.966;73.390;2023-07-29T10:22:43;4.78;;;2.95;;
63664;SDS011;49820;33.966;73.390;2023-07-29T10:25:21;5.23;;;3.50;;
63664;SDS011;49820;33.966;73.390;2023-07-29T10:30:45;6.20;;;2.90;;
63664;SDS011;49820;33.966;73.390;2023-07-29T10:33:16;4.18;;;2.95;;
63664;SDS011;49820;33.966;73.390;2023-07-29T10:35:49;4.32;;;2.83;;
63664;SDS011;49820;33.966;73.390;2023-07-29T10:38:23;5.80;;;3.70;;
63664;SDS011;49820;33.966;73.390;2023-07-29T10:40:55;4.90;;;3.43;;
63664;SDS011;49820;33.966;73.390;2023-07-29T10:43:34;5.20;;;3.67;;
63664;SDS011;49820;33.966;73.390;2023-07-29T10:46:41;5.45;;;4.68;;
63664;SDS011;49820;33.966;73.390;2023-07-29T10:49:05;3.83;;;2.72;;
63664;SDS011;49820;33.966;73.390;2023-07-29T10:51:35;5.30;;;2.75;;
63664;SDS011;49820;33.966;73.390;2023-07-29T10:54:13;4.55;;;2.28;;
63664;SDS011;49820;33.966;73.390;2023-07-29T10:56:47;3.63;;;2.45;;
63664;SDS011;49820;33.966;73.390;2023-07-29T11:01:57;3.42;;;2.35;;
63664;SDS011;49820;33.966;73.390;2023-07-29T11:04:30;3.37;;;2.40;;
63664;SDS011;49820;33.966;73.390;2023-07-29T11:12:36;4.55;;;2.70;;
63664;SDS011;49820;33.966;73.390;2023-07-29T11:17:57;3.90;;;2.47;;
63664;SDS011;49820;33.966;73.390;2023-07-29T11:20:28;3.22;;;2.38;;
63664;SDS011;49820;33.966;73.390;2023-07-29T11:23:00;4.25;;;2.28;;
63664;SDS011;49820;33.966;73.390;2023-07-29T11:25:30;3.40;;;2.20;;
63664;SDS011;49820;33.966;73.390;2023-07-29T11:28:12;3.47;;;2.20;;
63664;SDS011;49820;33.966;73.390;2023-07-29T11:30:42;3.95;;;2.22;;
63664;SDS011;49820;33.966;73.390;2023-07-29T11:33:11;5.93;;;2.65;;
63664;SDS011;49820;33.966;73.390;2023-07-29T11:35:41;5.85;;;2.65;;
63664;SDS011;49820;33.966;73.390;2023-07-29T11:38:14;4.50;;;2.80;;
63664;SDS011;49820;33.966;73.390;2023-07-29T11:40:56;4.78;;;2.45;;
63664;SDS011;49820;33.966;73.390;2023-07-29T11:43:34;5.90;;;2.63;;
63664;SDS011;49820;33.966;73.390;2023-07-29T11:46:04;4.68;;;2.83;;
63664;SDS011;49820;33.966;73.390;2023-07-29T11:48:33;5.20;;;2.95;;
63664;SDS011;49820;33.966;73.390;2023-07-29T11:51:03;3.92;;;3.08;;
63664;SDS011;49820;33.966;73.390;2023-07-29T11:53:33;4.53;;;2.90;;
63664;SDS011;49820;33.966;73.390;2023-07-29T11:56:02;4.93;;;2.80;;
63664;SDS011;49820;33.966;73.390;2023-07-29T11:58:34;4.20;;;2.67;;
63664;SDS011;49820;33.966;73.390;2023-07-29T12:01:05;3.60;;;2.90;;
63664;SDS011;49820;33.966;73.390;2023-07-29T12:03:34;8.52;;;3.25;;
63664;SDS011;49820;33.966;73.390;2023-07-29T12:06:03;4.45;;;3.40;;
63664;SDS011;49820;33.966;73.390;2023-07-29T12:08:33;4.47;;;3.25;;
63664;SDS011;49820;33.966;73.390;2023-07-29T12:11:02;5.30;;;3.10;;
63664;SDS011;49820;33.966;73.390;2023-07-29T12:13:33;4.68;;;3.30;;
63664;SDS011;49820;33.966;73.390;2023-07-29T12:16:03;5.13;;;3.45;;
63664;SDS011;49820;33.966;73.390;2023-07-29T12:18:33;5.47;;;3.17;;
63664;SDS011;49820;33.966;73.390;2023-07-29T12:21:02;5.00;;;3.17;;
63664;SDS011;49820;33.966;73.390;2023-07-29T12:23:32;6.35;;;3.20;;
63664;SDS011;49820;33.966;73.390;2023-07-29T12:26:01;5.13;;;2.90;;
63664;SDS011;49820;33.966;73.390;2023-07-29T12:28:31;4.63;;;2.90;;
63664;SDS011;49820;33.966;73.390;2023-07-29T12:31:00;3.42;;;2.63;;
63664;SDS011;49820;33.966;73.390;2023-07-29T12:33:30;4.40;;;2.92;;
63664;SDS011;49820;33.966;73.390;2023-07-29T12:36:00;4.93;;;2.95;;
63664;SDS011;49820;33.966;73.390;2023-07-29T12:38:30;4.90;;;3.00;;
63664;SDS011;49820;33.966;73.390;2023-07-29T12:41:01;5.38;;;3.08;;
63664;SDS011;49820;33.966;73.390;2023-07-29T12:43:30;5.60;;;2.63;;
63664;SDS011;49820;33.966;73.390;2023-07-29T12:45:59;4.57;;;3.00;;
63664;SDS011;49820;33.966;73.390;2023-07-29T12:48:29;3.75;;;3.08;;
63664;SDS011;49820;33.966;73.390;2023-07-29T12:50:58;3.40;;;2.67;;
63664;SDS011;49820;33.966;73.390;2023-07-29T12:53:28;5.30;;;3.07;;
63664;SDS011;49820;33.966;73.390;2023-07-29T12:55:58;5.22;;;3.38;;
63664;SDS011;49820;33.966;73.390;2023-07-29T12:58:29;5.00;;;3.10;;
63664;SDS011;49820;33.966;73.390;2023-07-29T13:00:58;7.25;;;4.78;;
63664;SDS011;49820;33.966;73.390;2023-07-29T13:03:27;8.10;;;3.30;;
63664;SDS011;49820;33.966;73.390;2023-07-29T13:05:58;5.22;;;3.08;;
63664;SDS011;49820;33.966;73.390;2023-07-29T13:08:29;5.22;;;3.50;;
63664;SDS011;49820;33.966;73.390;2023-07-29T13:10:59;7.13;;;3.60;;
63664;SDS011;49820;33.966;73.390;2023-07-29T13:13:28;6.55;;;4.40;;
63664;SDS011;49820;33.966;73.390;2023-07-29T13:15:57;7.07;;;3.87;;
63664;SDS011;49820;33.966;73.390;2023-07-29T13:18:29;3.97;;;3.22;;
63664;SDS011;49820;33.966;73.390;2023-07-29T13:20:58;6.93;;;3.25;;
63664;SDS011;49820;33.966;73.390;2023-07-29T13:23:29;4.60;;;3.10;;
63664;SDS011;49820;33.966;73.390;2023-07-29T13:25:57;5.55;;;3.80;;
63664;SDS011;49820;33.966;73.390;2023-07-29T13:28:26;6.05;;;3.88;;
63664;SDS011;49820;33.966;73.390;2023-07-29T13:30:56;6.50;;;3.60;;
63664;SDS011;49820;33.966;73.390;2023-07-29T13:33:27;5.28;;;4.03;;
63664;SDS011;49820;33.966;73.390;2023-07-29T13:36:08;5.40;;;3.58;;
63664;SDS011;49820;33.966;73.390;2023-07-29T13:38:38;7.32;;;4.20;;
63664;SDS011;49820;33.966;73.390;2023-07-29T13:41:07;7.75;;;4.20;;
63664;SDS011;49820;33.966;73.390;2023-07-29T13:43:37;6.05;;;4.07;;
63664;SDS011;49820;33.966;73.390;2023-07-29T13:46:08;6.93;;;4.40;;
63664;SDS011;49820;33.966;73.390;2023-07-29T13:48:38;6.80;;;4.60;;
63664;SDS011;49820;33.966;73.390;2023-07-29T13:51:07;6.90;;;4.30;;
63664;SDS011;49820;33.966;73.390;2023-07-29T13:53:36;5.15;;;3.60;;
63664;SDS011;49820;33.966;73.390;2023-07-29T13:56:06;7.85;;;4.38;;
63664;SDS011;49820;33.966;73.390;2023-07-29T13:58:35;9.95;;;4.75;;
63664;SDS011;49820;33.966;73.390;2023-07-29T14:01:23;7.63;;;5.10;;
63664;SDS011;49820;33.966;73.390;2023-07-29T14:03:52;7.47;;;4.68;;
63664;SDS011;49820;33.966;73.390;2023-07-29T14:06:23;6.25;;;4.93;;
63664;SDS011;49820;33.966;73.390;2023-07-29T14:09:10;9.10;;;5.10;;
63664;SDS011;49820;33.966;73.390;2023-07-29T14:11:39;8.20;;;5.50;;
63664;SDS011;49820;33.966;73.390;2023-07-29T14:14:11;10.40;;;5.95;;
63664;SDS011;49820;33.966;73.390;2023-07-29T14:16:41;8.30;;;4.73;;
63664;SDS011;49820;33.966;73.390;2023-07-29T14:19:10;7.97;;;4.55;;
63664;SDS011;49820;33.966;73.390;2023-07-29T14:21:40;6.90;;;4.97;;
63664;SDS011;49820;33.966;73.390;2023-07-29T14:24:09;7.18;;;4.80;;
63664;SDS011;49820;33.966;73.390;2023-07-29T14:26:38;6.80;;;4.90;;
63664;SDS011;49820;33.966;73.390;2023-07-29T14:29:07;8.43;;;5.40;;
63664;SDS011;49820;33.966;73.390;2023-07-29T14:31:36;7.47;;;5.00;;
